sensor_id;sensor_type;location;lat;lon;timestamp;temperature;humidity
18898;DHT22;9581;49.484;8.556;2023-05-07T00:01:37;17.00;99.90
18898;DHT22;9581;49.484;8.556;2023-05-07T00:04:04;17.00;99.90
18898;DHT22;9581;49.484;8.556;2023-05-07T00:06:32;17.00;99.90
18898;DHT22;9581;49.484;8.556;2023-05-07T00:08:59;16.70;99.90
18898;DHT22;9581;49.484;8.556;2023-05-07T00:11:26;16.90;99.90
18898;DHT22;9581;49.484;8.556;2023-05-07T00:13:53;17.00;99.90
18898;DHT22;9581;49.484;8.556;2023-05-07T00:16:20;16.60;99.90
18898;DHT22;9581;49.484;8.556;2023-05-07T00:18:48;16.80;99.90
18898;DHT22;9581;49.484;8.556;2023-05-07T00:21:15;16.80;99.90
18898;DHT22;9581;49.484;8.556;2023-05-07T00:23:42;16.50;99.90
18898;DHT22;9581;49.484;8.556;2023-05-07T00:26:09;16.20;99.90
18898;DHT22;9581;49.484;8.556;2023-05-07T00:28:35;16.40;99.90
18898;DHT22;9581;49.484;8.556;2023-05-07T00:31:02;16.30;99.90
18898;DHT22;9581;49.484;8.556;2023-05-07T00:33:29;16.40;99.90
18898;DHT22;9581;49.484;8.556;2023-05-07T00:35:57;16.10;99.90
18898;DHT22;9581;49.484;8.556;2023-05-07T00:38:26;16.50;99.90
18898;DHT22;9581;49.484;8.556;2023-05-07T00:40:53;16.50;99.90
18898;DHT22;9581;49.484;8.556;2023-05-07T00:43:19;16.00;99.90
18898;DHT22;9581;49.484;8.556;2023-05-07T00:45:46;16.30;99.90
18898;DHT22;9581;49.484;8.556;2023-05-07T00:48:13;16.10;99.90
18898;DHT22;9581;49.484;8.556;2023-05-07T00:50:40;15.80;99.90
18898;DHT22;9581;49.484;8.556;2023-05-07T00:53:09;16.10;99.90
18898;DHT22;9581;49.484;8.556;2023-05-07T00:55:35;15.80;99.90
18898;DHT22;9581;49.484;8.556;2023-05-07T00:58:02;16.00;99.90
18898;DHT22;9581;49.484;8.556;2023-05-07T01:00:29;16.40;99.90
18898;DHT22;9581;49.484;8.556;2023-05-07T01:02:56;16.20;99.90
18898;DHT22;9581;49.484;8.556;2023-05-07T01:05:24;16.30;99.90
18898;DHT22;9581;49.484;8.556;2023-05-07T01:07:53;15.90;99.90
18898;DHT22;9581;49.484;8.556;2023-05-07T01:10:22;15.90;99.90
18898;DHT22;9581;49.484;8.556;2023-05-07T01:12:50;16.30;99.90
18898;DHT22;9581;49.484;8.556;2023-05-07T01:15:17;16.00;99.90
18898;DHT22;9581;49.484;8.556;2023-05-07T01:17:44;16.10;99.90
18898;DHT22;9581;49.484;8.556;2023-05-07T01:20:12;16.10;99.90
18898;DHT22;9581;49.484;8.556;2023-05-07T01:22:40;15.80;99.90
18898;DHT22;9581;49.484;8.556;2023-05-07T01:25:08;15.90;99.90
18898;DHT22;9581;49.484;8.556;2023-05-07T01:27:35;15.50;99.90
18898;DHT22;9581;49.484;8.556;2023-05-07T01:30:03;15.70;99.90
18898;DHT22;9581;49.484;8.556;2023-05-07T01:32:33;15.60;99.90
18898;DHT22;9581;49.484;8.556;2023-05-07T01:35:03;15.60;99.90
18898;DHT22;9581;49.484;8.556;2023-05-07T01:37:32;16.00;99.90
18898;DHT22;9581;49.484;8.556;2023-05-07T01:40:01;15.90;99.90
18898;DHT22;9581;49.484;8.556;2023-05-07T01:42:29;15.70;99.90
18898;DHT22;9581;49.484;8.556;2023-05-07T01:44:56;15.70;99.90
18898;DHT22;9581;49.484;8.556;2023-05-07T01:47:23;15.90;99.90
18898;DHT22;9581;49.484;8.556;2023-05-07T01:49:50;15.80;99.90
18898;DHT22;9581;49.484;8.556;2023-05-07T01:52:17;15.60;99.90
18898;DHT22;9581;49.484;8.556;2023-05-07T01:54:44;15.50;99.90
18898;DHT22;9581;49.484;8.556;2023-05-07T01:57:12;15.60;99.90
18898;DHT22;9581;49.484;8.556;2023-05-07T01:59:39;15.50;99.90
18898;DHT22;9581;49.484;8.556;2023-05-07T02:02:06;15.50;99.90
18898;DHT22;9581;49.484;8.556;2023-05-07T02:04:32;15.80;99.90
18898;DHT22;9581;49.484;8.556;2023-05-07T02:06:59;15.80;99.90
18898;DHT22;9581;49.484;8.556;2023-05-07T02:09:26;15.50;99.90
18898;DHT22;9581;49.484;8.556;2023-05-07T02:11:53;15.70;99.90
18898;DHT22;9581;49.484;8.556;2023-05-07T02:14:21;15.70;99.90
18898;DHT22;9581;49.484;8.556;2023-05-07T02:16:48;15.90;99.90
18898;DHT22;9581;49.484;8.556;2023-05-07T02:19:15;15.90;99.90
18898;DHT22;9581;49.484;8.556;2023-05-07T02:21:42;15.80;99.90
18898;DHT22;9581;49.484;8.556;2023-05-07T02:24:09;15.50;99.90
18898;DHT22;9581;49.484;8.556;2023-05-07T02:26:35;15.40;99.90
18898;DHT22;9581;49.484;8.556;2023-05-07T02:29:02;15.40;99.90
18898;DHT22;9581;49.484;8.556;2023-05-07T02:31:30;15.60;99.90
18898;DHT22;9581;49.484;8.556;2023-05-07T02:33:59;15.60;99.90
18898;DHT22;9581;49.484;8.556;2023-05-07T02:36:26;15.60;99.90
18898;DHT22;9581;49.484;8.556;2023-05-07T02:38:53;15.70;99.90
18898;DHT22;9581;49.484;8.556;2023-05-07T02:41:20;15.90;99.90
18898;DHT22;9581;49.484;8.556;2023-05-07T02:43:47;15.90;99.90
18898;DHT22;9581;49.484;8.556;2023-05-07T02:46:14;15.30;99.90
18898;DHT22;9581;49.484;8.556;2023-05-07T02:48:42;15.60;99.90
18898;DHT22;9581;49.484;8.556;2023-05-07T02:51:09;15.50;99.90
18898;DHT22;9581;49.484;8.556;2023-05-07T02:53:36;15.50;99.90
18898;DHT22;9581;49.484;8.556;2023-05-07T02:56:03;15.60;99.90
18898;DHT22;9581;49.484;8.556;2023-05-07T02:58:31;15.50;99.90
18898;DHT22;9581;49.484;8.556;2023-05-07T03:00:57;15.60;99.90
18898;DHT22;9581;49.484;8.556;2023-05-07T03:03:24;15.30;99.90
18898;DHT22;9581;49.484;8.556;2023-05-07T03:05:52;15.50;99.90
18898;DHT22;9581;49.484;8.556;2023-05-07T03:08:19;15.80;99.90
18898;DHT22;9581;49.484;8.556;2023-05-07T03:10:46;16.00;99.90
18898;DHT22;9581;49.484;8.556;2023-05-07T03:13:13;16.00;99.90
18898;DHT22;9581;49.484;8.556;2023-05-07T03:15:40;16.10;99.90
18898;DHT22;9581;49.484;8.556;2023-05-07T03:18:06;16.10;99.90
18898;DHT22;9581;49.484;8.556;2023-05-07T03:20:33;16.10;99.90
18898;DHT22;9581;49.484;8.556;2023-05-07T03:23:03;16.00;99.90
18898;DHT22;9581;49.484;8.556;2023-05-07T03:25:30;15.60;99.90
18898;DHT22;9581;49.484;8.556;2023-05-07T03:27:56;15.30;99.90
18898;DHT22;9581;49.484;8.556;2023-05-07T03:30:23;15.00;99.90
18898;DHT22;9581;49.484;8.556;2023-05-07T03:32:50;15.00;99.90
18898;DHT22;9581;49.484;8.556;2023-05-07T03:35:17;15.10;99.90
18898;DHT22;9581;49.484;8.556;2023-05-07T03:37:44;15.10;99.90
18898;DHT22;9581;49.484;8.556;2023-05-07T03:40:12;14.90;99.90
18898;DHT22;9581;49.484;8.556;2023-05-07T03:42:39;14.90;99.90
18898;DHT22;9581;49.484;8.556;2023-05-07T03:45:07;15.10;99.90
18898;DHT22;9581;49.484;8.556;2023-05-07T03:47:34;15.00;99.90
18898;DHT22;9581;49.484;8.556;2023-05-07T03:50:00;14.90;99.90
18898;DHT22;9581;49.484;8.556;2023-05-07T03:52:27;14.80;99.90
18898;DHT22;9581;49.484;8.556;2023-05-07T03:54:54;14.60;99.90
18898;DHT22;9581;49.484;8.556;2023-05-07T03:57:22;14.70;99.90
18898;DHT22;9581;49.484;8.556;2023-05-07T03:59:49;14.40;99.90
18898;DHT22;9581;49.484;8.556;2023-05-07T04:02:16;14.40;99.90
18898;DHT22;9581;49.484;8.556;2023-05-07T04:04:42;14.60;99.90
18898;DHT22;9581;49.484;8.556;2023-05-07T04:07:09;15.00;99.90
18898;DHT22;9581;49.484;8.556;2023-05-07T04:09:36;14.80;99.90
18898;DHT22;9581;49.484;8.556;2023-05-07T04:12:03;14.80;99.90
18898;DHT22;9581;49.484;8.556;2023-05-07T04:14:31;14.70;99.90
18898;DHT22;9581;49.484;8.556;2023-05-07T04:16:58;14.60;99.90
18898;DHT22;9581;49.484;8.556;2023-05-07T04:19:25;14.50;99.90
18898;DHT22;9581;49.484;8.556;2023-05-07T04:21:52;14.60;99.90
18898;DHT22;9581;49.484;8.556;2023-05-07T04:24:19;14.60;99.90
18898;DHT22;9581;49.484;8.556;2023-05-07T04:26:46;14.40;99.90
18898;DHT22;9581;49.484;8.556;2023-05-07T04:29:12;14.30;99.90
18898;DHT22;9581;49.484;8.556;2023-05-07T04:31:40;14.60;99.90
18898;DHT22;9581;49.484;8.556;2023-05-07T04:34:09;15.10;99.90
18898;DHT22;9581;49.484;8.556;2023-05-07T04:36:36;14.90;99.90
18898;DHT22;9581;49.484;8.556;2023-05-07T04:39:03;14.80;99.90
18898;DHT22;9581;49.484;8.556;2023-05-07T04:41:30;14.80;99.90
18898;DHT22;9581;49.484;8.556;2023-05-07T04:43:57;14.80;99.90
18898;DHT22;9581;49.484;8.556;2023-05-07T04:46:24;14.90;99.90
18898;DHT22;9581;49.484;8.556;2023-05-07T04:48:52;15.30;99.90
18898;DHT22;9581;49.484;8.556;2023-05-07T04:51:19;15.50;99.90
18898;DHT22;9581;49.484;8.556;2023-05-07T04:53:46;15.60;99.90
18898;DHT22;9581;49.484;8.556;2023-05-07T04:56:12;15.70;99.90
18898;DHT22;9581;49.484;8.556;2023-05-07T04:58:39;15.80;99.90
18898;DHT22;9581;49.484;8.556;2023-05-07T05:01:06;15.90;99.90
18898;DHT22;9581;49.484;8.556;2023-05-07T05:03:33;16.00;99.90
18898;DHT22;9581;49.484;8.556;2023-05-07T05:06:01;16.00;99.90
18898;DHT22;9581;49.484;8.556;2023-05-07T05:08:27;16.00;99.90
18898;DHT22;9581;49.484;8.556;2023-05-07T05:10:56;16.00;99.90
18898;DHT22;9581;49.484;8.556;2023-05-07T05:13:22;16.10;99.90
18898;DHT22;9581;49.484;8.556;2023-05-07T05:15:49;16.20;99.90
18898;DHT22;9581;49.484;8.556;2023-05-07T05:18:16;16.30;99.90
18898;DHT22;9581;49.484;8.556;2023-05-07T05:20:43;16.20;99.90
18898;DHT22;9581;49.484;8.556;2023-05-07T05:23:11;16.10;99.90
18898;DHT22;9581;49.484;8.556;2023-05-07T05:25:38;16.30;99.90
18898;DHT22;9581;49.484;8.556;2023-05-07T05:28:05;16.10;99.90
18898;DHT22;9581;49.484;8.556;2023-05-07T05:30:32;16.30;99.90
18898;DHT22;9581;49.484;8.556;2023-05-07T05:32:59;16.30;99.90
18898;DHT22;9581;49.484;8.556;2023-05-07T05:35:26;16.10;99.90
18898;DHT22;9581;49.484;8.556;2023-05-07T05:37:52;16.20;99.90
18898;DHT22;9581;49.484;8.556;2023-05-07T05:40:20;15.80;99.90
18898;DHT22;9581;49.484;8.556;2023-05-07T05:42:47;16.20;99.90
18898;DHT22;9581;49.484;8.556;2023-05-07T05:45:14;16.30;99.90
18898;DHT22;9581;49.484;8.556;2023-05-07T05:47:41;16.40;99.90
18898;DHT22;9581;49.484;8.556;2023-05-07T05:50:08;16.60;99.90
18898;DHT22;9581;49.484;8.556;2023-05-07T05:52:35;16.70;99.90
18898;DHT22;9581;49.484;8.556;2023-05-07T05:55:01;16.70;99.90
18898;DHT22;9581;49.484;8.556;2023-05-07T05:57:30;16.70;99.90
18898;DHT22;9581;49.484;8.556;2023-05-07T05:59:57;16.80;99.90
18898;DHT22;9581;49.484;8.556;2023-05-07T06:02:23;16.90;99.90
18898;DHT22;9581;49.484;8.556;2023-05-07T06:04:50;16.90;99.90
18898;DHT22;9581;49.484;8.556;2023-05-07T06:07:17;17.00;99.90
18898;DHT22;9581;49.484;8.556;2023-05-07T06:09:44;17.00;99.90
18898;DHT22;9581;49.484;8.556;2023-05-07T06:12:11;17.20;99.90
18898;DHT22;9581;49.484;8.556;2023-05-07T06:14:39;17.20;99.90
18898;DHT22;9581;49.484;8.556;2023-05-07T06:17:07;17.30;99.90
18898;DHT22;9581;49.484;8.556;2023-05-07T06:19:33;17.30;99.90
18898;DHT22;9581;49.484;8.556;2023-05-07T06:22:00;17.40;99.90
18898;DHT22;9581;49.484;8.556;2023-05-07T06:24:28;17.40;99.90
18898;DHT22;9581;49.484;8.556;2023-05-07T06:26:55;17.50;99.90
18898;DHT22;9581;49.484;8.556;2023-05-07T06:29:23;17.60;99.90
18898;DHT22;9581;49.484;8.556;2023-05-07T06:31:52;17.70;99.90
18898;DHT22;9581;49.484;8.556;2023-05-07T06:34:19;17.70;99.90
18898;DHT22;9581;49.484;8.556;2023-05-07T06:36:46;17.80;99.90
18898;DHT22;9581;49.484;8.556;2023-05-07T06:39:12;17.80;99.90
18898;DHT22;9581;49.484;8.556;2023-05-07T06:41:39;17.80;99.90
18898;DHT22;9581;49.484;8.556;2023-05-07T06:44:06;17.90;99.90
18898;DHT22;9581;49.484;8.556;2023-05-07T06:46:33;17.90;99.90
18898;DHT22;9581;49.484;8.556;2023-05-07T06:49:01;18.00;99.90
18898;DHT22;9581;49.484;8.556;2023-05-07T06:51:28;18.10;99.90
18898;DHT22;9581;49.484;8.556;2023-05-07T06:53:55;18.20;99.90
18898;DHT22;9581;49.484;8.556;2023-05-07T06:56:22;18.30;99.90
18898;DHT22;9581;49.484;8.556;2023-05-07T06:58:49;18.20;99.90
18898;DHT22;9581;49.484;8.556;2023-05-07T07:01:16;18.20;99.90
18898;DHT22;9581;49.484;8.556;2023-05-07T07:03:43;18.30;99.90
18898;DHT22;9581;49.484;8.556;2023-05-07T07:06:11;18.40;99.90
18898;DHT22;9581;49.484;8.556;2023-05-07T07:08:38;18.50;99.90
18898;DHT22;9581;49.484;8.556;2023-05-07T07:11:05;18.70;99.90
18898;DHT22;9581;49.484;8.556;2023-05-07T07:13:32;18.70;99.90
18898;DHT22;9581;49.484;8.556;2023-05-07T07:15:59;18.70;99.90
18898;DHT22;9581;49.484;8.556;2023-05-07T07:18:26;18.90;99.90
18898;DHT22;9581;49.484;8.556;2023-05-07T07:20:52;19.30;99.90
18898;DHT22;9581;49.484;8.556;2023-05-07T07:23:21;19.20;99.90
18898;DHT22;9581;49.484;8.556;2023-05-07T07:25:47;19.40;99.90
18898;DHT22;9581;49.484;8.556;2023-05-07T07:28:14;19.50;99.90
18898;DHT22;9581;49.484;8.556;2023-05-07T07:30:41;19.60;99.90
18898;DHT22;9581;49.484;8.556;2023-05-07T07:33:08;19.90;99.90
18898;DHT22;9581;49.484;8.556;2023-05-07T07:35:35;20.00;99.90
18898;DHT22;9581;49.484;8.556;2023-05-07T07:38:02;20.00;99.90
18898;DHT22;9581;49.484;8.556;2023-05-07T07:40:30;20.10;99.90
18898;DHT22;9581;49.484;8.556;2023-05-07T07:42:57;20.00;99.90
18898;DHT22;9581;49.484;8.556;2023-05-07T07:45:24;20.10;99.90
18898;DHT22;9581;49.484;8.556;2023-05-07T07:47:50;20.20;99.90
18898;DHT22;9581;49.484;8.556;2023-05-07T07:50:17;20.20;99.90
18898;DHT22;9581;49.484;8.556;2023-05-07T07:52:44;20.20;99.90
18898;DHT22;9581;49.484;8.556;2023-05-07T07:55:11;20.10;99.90
18898;DHT22;9581;49.484;8.556;2023-05-07T07:57:40;20.10;99.90
18898;DHT22;9581;49.484;8.556;2023-05-07T08:00:08;20.10;99.90
18898;DHT22;9581;49.484;8.556;2023-05-07T08:02:35;20.20;99.90
18898;DHT22;9581;49.484;8.556;2023-05-07T08:05:02;20.20;99.90
18898;DHT22;9581;49.484;8.556;2023-05-07T08:07:29;20.20;99.90
18898;DHT22;9581;49.484;8.556;2023-05-07T08:09:56;20.20;99.90
18898;DHT22;9581;49.484;8.556;2023-05-07T08:12:23;20.20;99.90
18898;DHT22;9581;49.484;8.556;2023-05-07T08:14:51;20.10;99.90
18898;DHT22;9581;49.484;8.556;2023-05-07T08:17:18;20.10;99.90
18898;DHT22;9581;49.484;8.556;2023-05-07T08:19:47;20.20;99.90
18898;DHT22;9581;49.484;8.556;2023-05-07T08:22:14;20.20;99.90
18898;DHT22;9581;49.484;8.556;2023-05-07T08:24:41;20.10;99.90
18898;DHT22;9581;49.484;8.556;2023-05-07T08:27:07;20.10;99.90
18898;DHT22;9581;49.484;8.556;2023-05-07T08:29:34;20.10;99.90
18898;DHT22;9581;49.484;8.556;2023-05-07T08:32:03;20.20;99.90
18898;DHT22;9581;49.484;8.556;2023-05-07T08:34:30;20.30;99.90
18898;DHT22;9581;49.484;8.556;2023-05-07T08:36:56;20.20;99.90
18898;DHT22;9581;49.484;8.556;2023-05-07T08:39:23;20.30;99.90
18898;DHT22;9581;49.484;8.556;2023-05-07T08:41:54;20.30;99.90
18898;DHT22;9581;49.484;8.556;2023-05-07T08:44:22;20.30;99.90
18898;DHT22;9581;49.484;8.556;2023-05-07T08:46:52;20.40;99.90
18898;DHT22;9581;49.484;8.556;2023-05-07T08:49:21;20.50;99.90
18898;DHT22;9581;49.484;8.556;2023-05-07T08:51:48;20.60;99.90
18898;DHT22;9581;49.484;8.556;2023-05-07T08:54:16;20.50;99.90
18898;DHT22;9581;49.484;8.556;2023-05-07T08:56:43;20.40;99.90
18898;DHT22;9581;49.484;8.556;2023-05-07T08:59:10;20.60;99.90
18898;DHT22;9581;49.484;8.556;2023-05-07T09:01:37;20.70;99.90
18898;DHT22;9581;49.484;8.556;2023-05-07T09:04:04;20.70;99.90
18898;DHT22;9581;49.484;8.556;2023-05-07T09:06:32;20.70;99.90
18898;DHT22;9581;49.484;8.556;2023-05-07T09:09:00;20.80;99.90
18898;DHT22;9581;49.484;8.556;2023-05-07T09:11:28;21.10;99.90
18898;DHT22;9581;49.484;8.556;2023-05-07T09:13:55;21.40;99.90
18898;DHT22;9581;49.484;8.556;2023-05-07T09:16:24;21.70;99.90
18898;DHT22;9581;49.484;8.556;2023-05-07T09:18:53;21.80;99.90
18898;DHT22;9581;49.484;8.556;2023-05-07T09:21:20;21.90;99.90
18898;DHT22;9581;49.484;8.556;2023-05-07T09:23:53;22.00;99.90
18898;DHT22;9581;49.484;8.556;2023-05-07T09:26:21;21.90;99.90
18898;DHT22;9581;49.484;8.556;2023-05-07T09:28:48;21.80;99.90
18898;DHT22;9581;49.484;8.556;2023-05-07T09:31:16;21.60;99.90
18898;DHT22;9581;49.484;8.556;2023-05-07T09:33:42;21.60;99.90
18898;DHT22;9581;49.484;8.556;2023-05-07T09:36:09;21.50;99.90
18898;DHT22;9581;49.484;8.556;2023-05-07T09:38:37;21.70;99.90
18898;DHT22;9581;49.484;8.556;2023-05-07T09:41:07;22.00;99.90
18898;DHT22;9581;49.484;8.556;2023-05-07T09:43:35;22.30;99.90
18898;DHT22;9581;49.484;8.556;2023-05-07T09:46:03;22.70;99.90
18898;DHT22;9581;49.484;8.556;2023-05-07T09:48:34;22.70;99.90
18898;DHT22;9581;49.484;8.556;2023-05-07T09:51:09;22.60;99.90
18898;DHT22;9581;49.484;8.556;2023-05-07T09:53:38;22.50;99.90
18898;DHT22;9581;49.484;8.556;2023-05-07T09:56:07;22.50;99.90
18898;DHT22;9581;49.484;8.556;2023-05-07T09:58:37;22.60;99.90
18898;DHT22;9581;49.484;8.556;2023-05-07T10:01:04;22.80;99.90
18898;DHT22;9581;49.484;8.556;2023-05-07T10:03:32;23.00;99.90
18898;DHT22;9581;49.484;8.556;2023-05-07T10:06:00;23.10;99.90
18898;DHT22;9581;49.484;8.556;2023-05-07T10:08:28;23.40;99.90
18898;DHT22;9581;49.484;8.556;2023-05-07T10:10:56;23.60;99.90
18898;DHT22;9581;49.484;8.556;2023-05-07T10:13:25;23.70;99.90
18898;DHT22;9581;49.484;8.556;2023-05-07T10:15:52;23.90;99.90
18898;DHT22;9581;49.484;8.556;2023-05-07T10:18:21;24.20;99.90
18898;DHT22;9581;49.484;8.556;2023-05-07T10:20:50;24.50;99.90
18898;DHT22;9581;49.484;8.556;2023-05-07T10:23:23;24.60;99.90
18898;DHT22;9581;49.484;8.556;2023-05-07T10:25:50;24.70;99.90
18898;DHT22;9581;49.484;8.556;2023-05-07T10:28:18;24.30;99.90
18898;DHT22;9581;49.484;8.556;2023-05-07T10:30:58;24.20;99.90
18898;DHT22;9581;49.484;8.556;2023-05-07T10:33:29;24.20;99.90
18898;DHT22;9581;49.484;8.556;2023-05-07T10:35:59;24.10;99.90
18898;DHT22;9581;49.484;8.556;2023-05-07T10:38:27;24.20;99.90
18898;DHT22;9581;49.484;8.556;2023-05-07T10:40:54;24.20;99.90
18898;DHT22;9581;49.484;8.556;2023-05-07T10:43:21;24.30;99.90
18898;DHT22;9581;49.484;8.556;2023-05-07T10:46:11;24.30;99.90
18898;DHT22;9581;49.484;8.556;2023-05-07T10:49:11;24.30;99.90
18898;DHT22;9581;49.484;8.556;2023-05-07T10:51:38;24.20;99.90
18898;DHT22;9581;49.484;8.556;2023-05-07T10:54:21;24.30;99.90
18898;DHT22;9581;49.484;8.556;2023-05-07T10:56:49;24.50;99.90
18898;DHT22;9581;49.484;8.556;2023-05-07T10:59:35;24.80;99.90
18898;DHT22;9581;49.484;8.556;2023-05-07T11:02:08;24.80;99.90
18898;DHT22;9581;49.484;8.556;2023-05-07T11:04:37;25.00;99.90
18898;DHT22;9581;49.484;8.556;2023-05-07T11:07:29;25.10;99.90
18898;DHT22;9581;49.484;8.556;2023-05-07T11:09:57;25.00;99.90
18898;DHT22;9581;49.484;8.556;2023-05-07T11:15:37;25.00;99.90
18898;DHT22;9581;49.484;8.556;2023-05-07T11:18:06;25.20;99.90
18898;DHT22;9581;49.484;8.556;2023-05-07T11:20:53;25.00;99.90
18898;DHT22;9581;49.484;8.556;2023-05-07T11:23:55;24.80;99.90
18898;DHT22;9581;49.484;8.556;2023-05-07T11:26:22;24.90;99.90
18898;DHT22;9581;49.484;8.556;2023-05-07T11:28:52;24.90;99.90
18898;DHT22;9581;49.484;8.556;2023-05-07T11:31:25;24.80;99.90
18898;DHT22;9581;49.484;8.556;2023-05-07T11:33:54;24.90;99.90
18898;DHT22;9581;49.484;8.556;2023-05-07T11:36:23;24.80;99.90
18898;DHT22;9581;49.484;8.556;2023-05-07T11:38:50;24.80;99.90
18898;DHT22;9581;49.484;8.556;2023-05-07T11:41:17;25.00;99.90
18898;DHT22;9581;49.484;8.556;2023-05-07T11:43:57;25.30;99.90
18898;DHT22;9581;49.484;8.556;2023-05-07T11:46:24;25.50;99.90
18898;DHT22;9581;49.484;8.556;2023-05-07T11:48:51;25.50;99.90
18898;DHT22;9581;49.484;8.556;2023-05-07T11:51:23;25.40;99.90
18898;DHT22;9581;49.484;8.556;2023-05-07T11:53:51;25.40;99.90
18898;DHT22;9581;49.484;8.556;2023-05-07T11:56:18;25.70;99.90
18898;DHT22;9581;49.484;8.556;2023-05-07T11:58:47;25.60;99.90
18898;DHT22;9581;49.484;8.556;2023-05-07T12:01:14;25.80;99.90
18898;DHT22;9581;49.484;8.556;2023-05-07T12:03:43;26.20;99.90
18898;DHT22;9581;49.484;8.556;2023-05-07T12:06:11;26.30;99.90
18898;DHT22;9581;49.484;8.556;2023-05-07T12:08:40;26.20;99.90
18898;DHT22;9581;49.484;8.556;2023-05-07T12:11:09;26.00;99.90
18898;DHT22;9581;49.484;8.556;2023-05-07T12:13:37;25.90;99.90
18898;DHT22;9581;49.484;8.556;2023-05-07T12:16:05;25.90;99.90
18898;DHT22;9581;49.484;8.556;2023-05-07T12:18:33;26.30;99.90
18898;DHT22;9581;49.484;8.556;2023-05-07T12:21:01;26.70;99.90
18898;DHT22;9581;49.484;8.556;2023-05-07T12:23:28;27.00;99.90
18898;DHT22;9581;49.484;8.556;2023-05-07T12:25:56;26.80;99.90
18898;DHT22;9581;49.484;8.556;2023-05-07T12:28:23;27.10;99.90
18898;DHT22;9581;49.484;8.556;2023-05-07T12:30:50;27.50;99.90
18898;DHT22;9581;49.484;8.556;2023-05-07T12:33:18;27.50;99.90
18898;DHT22;9581;49.484;8.556;2023-05-07T12:35:47;27.50;99.90
18898;DHT22;9581;49.484;8.556;2023-05-07T12:38:15;27.00;99.90
18898;DHT22;9581;49.484;8.556;2023-05-07T12:40:44;26.70;99.90
18898;DHT22;9581;49.484;8.556;2023-05-07T12:43:17;26.80;99.90
18898;DHT22;9581;49.484;8.556;2023-05-07T12:45:45;26.80;99.90
18898;DHT22;9581;49.484;8.556;2023-05-07T12:48:13;26.90;99.90
18898;DHT22;9581;49.484;8.556;2023-05-07T12:50:39;27.20;99.90
18898;DHT22;9581;49.484;8.556;2023-05-07T12:53:07;27.50;99.90
18898;DHT22;9581;49.484;8.556;2023-05-07T12:55:41;27.80;99.90
18898;DHT22;9581;49.484;8.556;2023-05-07T12:58:15;27.80;99.60
18898;DHT22;9581;49.484;8.556;2023-05-07T13:00:43;27.60;98.30
18898;DHT22;9581;49.484;8.556;2023-05-07T13:03:10;27.60;95.00
18898;DHT22;9581;49.484;8.556;2023-05-07T13:05:37;27.70;98.60
18898;DHT22;9581;49.484;8.556;2023-05-07T13:08:04;27.80;97.60
18898;DHT22;9581;49.484;8.556;2023-05-07T13:10:31;27.90;97.20
18898;DHT22;9581;49.484;8.556;2023-05-07T13:12:59;27.50;97.50
18898;DHT22;9581;49.484;8.556;2023-05-07T13:15:27;27.20;98.40
18898;DHT22;9581;49.484;8.556;2023-05-07T13:17:54;27.10;98.60
18898;DHT22;9581;49.484;8.556;2023-05-07T13:20:21;26.70;99.70
18898;DHT22;9581;49.484;8.556;2023-05-07T13:22:48;26.40;98.90
18898;DHT22;9581;49.484;8.556;2023-05-07T13:25:15;26.20;99.60
18898;DHT22;9581;49.484;8.556;2023-05-07T13:27:42;26.00;99.20
18898;DHT22;9581;49.484;8.556;2023-05-07T13:30:09;25.80;99.60
18898;DHT22;9581;49.484;8.556;2023-05-07T13:32:37;25.70;99.90
18898;DHT22;9581;49.484;8.556;2023-05-07T13:35:05;25.50;99.90
18898;DHT22;9581;49.484;8.556;2023-05-07T13:37:32;25.40;99.90
18898;DHT22;9581;49.484;8.556;2023-05-07T13:39:58;25.10;99.90
18898;DHT22;9581;49.484;8.556;2023-05-07T13:42:25;25.00;99.90
18898;DHT22;9581;49.484;8.556;2023-05-07T13:44:52;24.80;99.90
18898;DHT22;9581;49.484;8.556;2023-05-07T13:47:19;24.70;99.90
18898;DHT22;9581;49.484;8.556;2023-05-07T13:49:47;24.60;99.90
18898;DHT22;9581;49.484;8.556;2023-05-07T13:52:15;24.60;99.90
18898;DHT22;9581;49.484;8.556;2023-05-07T13:54:42;24.40;99.90
18898;DHT22;9581;49.484;8.556;2023-05-07T13:57:09;24.30;99.90
18898;DHT22;9581;49.484;8.556;2023-05-07T13:59:36;24.10;99.90
18898;DHT22;9581;49.484;8.556;2023-05-07T14:02:03;23.60;99.90
18898;DHT22;9581;49.484;8.556;2023-05-07T14:04:30;23.10;99.90
18898;DHT22;9581;49.484;8.556;2023-05-07T14:06:59;22.70;99.90
18898;DHT22;9581;49.484;8.556;2023-05-07T14:09:26;22.40;99.90
18898;DHT22;9581;49.484;8.556;2023-05-07T14:11:53;21.90;99.90
18898;DHT22;9581;49.484;8.556;2023-05-07T14:14:19;21.50;99.90
18898;DHT22;9581;49.484;8.556;2023-05-07T14:16:46;21.20;99.90
18898;DHT22;9581;49.484;8.556;2023-05-07T14:19:13;21.10;99.90
18898;DHT22;9581;49.484;8.556;2023-05-07T14:21:40;21.10;99.90
18898;DHT22;9581;49.484;8.556;2023-05-07T14:24:09;21.10;99.90
18898;DHT22;9581;49.484;8.556;2023-05-07T14:26:35;20.90;99.90
18898;DHT22;9581;49.484;8.556;2023-05-07T14:29:03;20.60;99.90
18898;DHT22;9581;49.484;8.556;2023-05-07T14:31:29;20.70;99.90
18898;DHT22;9581;49.484;8.556;2023-05-07T14:33:56;20.50;99.90
18898;DHT22;9581;49.484;8.556;2023-05-07T14:36:24;20.60;99.90
18898;DHT22;9581;49.484;8.556;2023-05-07T14:38:52;20.60;99.90
18898;DHT22;9581;49.484;8.556;2023-05-07T14:41:21;20.50;99.90
18898;DHT22;9581;49.484;8.556;2023-05-07T14:43:48;20.30;99.90
18898;DHT22;9581;49.484;8.556;2023-05-07T14:46:17;20.10;99.90
18898;DHT22;9581;49.484;8.556;2023-05-07T14:48:44;20.00;99.90
18898;DHT22;9581;49.484;8.556;2023-05-07T14:51:12;19.80;99.90
18898;DHT22;9581;49.484;8.556;2023-05-07T14:53:40;19.80;99.90
18898;DHT22;9581;49.484;8.556;2023-05-07T14:56:07;19.40;99.90
18898;DHT22;9581;49.484;8.556;2023-05-07T14:58:35;19.20;99.90
18898;DHT22;9581;49.484;8.556;2023-05-07T15:01:03;18.60;99.90
18898;DHT22;9581;49.484;8.556;2023-05-07T15:03:29;18.60;99.90
18898;DHT22;9581;49.484;8.556;2023-05-07T15:05:56;19.00;99.90
18898;DHT22;9581;49.484;8.556;2023-05-07T15:08:23;19.20;99.90
18898;DHT22;9581;49.484;8.556;2023-05-07T15:10:50;19.30;99.90
18898;DHT22;9581;49.484;8.556;2023-05-07T15:13:17;19.40;99.90
18898;DHT22;9581;49.484;8.556;2023-05-07T15:15:45;19.30;99.90
18898;DHT22;9581;49.484;8.556;2023-05-07T15:18:12;19.40;99.90
18898;DHT22;9581;49.484;8.556;2023-05-07T15:20:39;19.30;99.90
18898;DHT22;9581;49.484;8.556;2023-05-07T15:23:06;19.00;99.90
18898;DHT22;9581;49.484;8.556;2023-05-07T15:25:35;18.80;99.90
18898;DHT22;9581;49.484;8.556;2023-05-07T15:28:02;18.90;99.90
18898;DHT22;9581;49.484;8.556;2023-05-07T15:30:29;18.80;99.90
18898;DHT22;9581;49.484;8.556;2023-05-07T15:32:57;18.90;99.90
18898;DHT22;9581;49.484;8.556;2023-05-07T15:35:25;18.80;99.90
18898;DHT22;9581;49.484;8.556;2023-05-07T15:37:52;18.70;99.90
18898;DHT22;9581;49.484;8.556;2023-05-07T15:40:19;18.70;99.90
18898;DHT22;9581;49.484;8.556;2023-05-07T15:42:46;18.60;99.90
18898;DHT22;9581;49.484;8.556;2023-05-07T15:45:13;18.50;99.90
18898;DHT22;9581;49.484;8.556;2023-05-07T15:47:40;18.40;99.90
18898;DHT22;9581;49.484;8.556;2023-05-07T15:50:09;18.40;99.90
18898;DHT22;9581;49.484;8.556;2023-05-07T15:52:36;18.40;99.90